Time;durP1;ratioP1;P1;durP2;ratioP2;P2;SDS_P1;SDS_P2;PMS_P1;PMS_P2;Temp;Humidity;BMP_temperature;BMP_pressure;BME280_temperature;BME280_humidity;BME280_pressure;Samples;Min_cycle;Max_cycle;Signal;HPM_P1;HPM_P2
2022/11/03 00:08:12;;;;;;;2.10;1.20;;;;;;;;;;20806396;28;20693;-70
2022/11/03 00:18:13;;;;;;;1.47;0.97;;;;;;;;;;20824243;28;20210;-70
2022/11/03 00:28:15;;;;;;;2.87;1.00;;;;;;;;;;20805556;28;20222;-71
2022/11/03 00:38:16;;;;;;;1.90;1.20;;;;;;;;;;20744266;23;20235;-69
2022/11/03 00:48:34;;;;;;;2.87;0.90;;;;;;;;;;20721226;28;20289;-68
2022/11/03 00:58:35;;;;;;;2.77;1.20;;;10.10;99.90;;;;;;20737661;28;20698;-68
2022/11/03 01:08:38;;;;;;;2.87;1.20;;;;;;;;;;20736827;28;20289;-69
2022/11/03 01:18:39;;;;;;;1.73;1.10;;;;;;;;;;20736307;28;20203;-69
2022/11/03 01:28:44;;;;;;;1.70;0.80;;;10.00;99.90;;;;;;20735966;28;20231;-69
2022/11/03 01:38:46;;;;;;;2.23;0.90;;;;;;;;;;20732474;28;20405;-69
2022/11/03 01:48:49;;;;;;;3.30;1.53;;;;;;;;;;20735960;28;20223;-68
2022/11/03 01:58:53;;;;;;;1.87;1.00;;;;;;;;;;20733599;28;20215;-69
2022/11/03 02:08:59;;;;;;;3.33;1.40;;;;;;;;;;20716913;28;20864;-69
2022/11/03 02:19:02;;;;;;;2.87;1.43;;;10.10;99.90;;;;;;20733916;28;20195;-69
2022/11/03 02:29:03;;;;;;;3.70;1.10;;;;;;;;;;20733629;28;20289;-69
2022/11/03 02:39:14;;;;;;;1.97;0.80;;;9.50;99.90;;;;;;20730825;28;20625;-70
2022/11/03 02:49:16;;;;;;;2.60;1.13;;;;;;;;;;20741015;28;20704;-69
2022/11/03 02:59:22;;;;;;;3.07;0.87;;;;;;;;;;20746526;28;20219;-69
2022/11/03 03:09:57;;;;;;;3.30;1.20;;;9.20;99.90;;;;;;20746237;28;20219;-70
2022/11/03 03:20:02;;;;;;;2.53;1.10;;;;;;;;;;20735195;28;20192;-68
2022/11/03 03:30:05;;;;;;;2.27;0.97;;;;;;;;;;20742672;28;20246;-69
2022/11/03 03:40:11;;;;;;;3.77;1.10;;;9.10;99.90;;;;;;20741980;28;20249;-70
2022/11/03 03:50:13;;;;;;;1.53;0.93;;;;;;;;;;20742845;28;20249;-69
2022/11/03 04:00:15;;;;;;;1.30;0.80;;;;;;;;;;20741875;28;20207;-69
2022/11/03 04:10:18;;;;;;;3.17;1.50;;;9.00;99.90;;;;;;20724491;28;20208;-69
2022/11/03 04:30:41;;;;;;;5.37;1.30;;;;;;;;;;20735621;28;20251;-69
2022/11/03 04:40:44;;;;;;;2.97;1.00;;;;;;;;;;20724771;28;20709;-71
2022/11/03 04:50:46;;;;;;;3.93;1.40;;;;;;;;;;20700060;28;20690;-69
2022/11/03 05:00:49;;;;;;;2.37;1.03;;;;;;;;;;20704488;28;20238;-69
2022/11/03 05:10:51;;;;;;;3.90;1.50;;;;;;;;;;20736696;28;20207;-69
2022/11/03 05:20:53;;;;;;;3.03;1.23;;;;;;;;;;20735925;28;20218;-69
2022/11/03 05:30:55;;;;;;;2.33;1.07;;;8.40;99.90;;;;;;20735804;28;20591;-68
2022/11/03 05:40:57;;;;;;;11.53;5.90;;;;;;;;;;20718133;28;20219;-69
2022/11/03 05:51:00;;;;;;;2.07;1.07;;;;;;;;;;20734661;28;20545;-68
2022/11/03 06:01:21;;;;;;;19.83;7.97;;;;;;;;;;20733082;28;20284;-69
2022/11/03 06:11:41;;;;;;;2.70;1.03;;;8.60;99.90;;;;;;20716227;28;20207;-69
2022/11/03 06:21:43;;;;;;;2.23;1.07;;;;;;;;;;20738963;28;20222;-68
2022/11/03 06:31:47;;;;;;;2.30;1.17;;;;;;;;;;20772932;23;20223;-67
2022/11/03 06:41:49;;;;;;;4.00;0.83;;;;;;;;;;20789026;28;20237;-67
2022/11/03 06:51:51;;;;;;;1.40;0.90;;;;;;;;;;20782576;28;20214;-67
2022/11/03 07:01:54;;;;;;;3.50;1.50;;;;;;;;;;20781391;28;20280;-67
2022/11/03 07:11:57;;;;;;;2.37;1.13;;;;;;;;;;20797591;28;20214;-67
2022/11/03 07:22:10;;;;;;;1.30;0.60;;;8.50;99.90;;;;;;20780409;28;20227;-67
2022/11/03 07:32:15;;;;;;;2.50;1.20;;;;;;;;;;20779178;28;20264;-67
2022/11/03 07:42:21;;;;;;;2.03;1.20;;;;;;;;;;20795243;28;20653;-66
2022/11/03 07:52:25;;;;;;;3.70;1.10;;;8.70;99.90;;;;;;20810549;28;20249;-66
2022/11/03 08:02:30;;;;;;;1.50;0.73;;;;;;;;;;20776689;28;20678;-67
2022/11/03 08:12:33;;;;;;;2.90;1.27;;;;;;;;;;20792591;28;20281;-67
2022/11/03 08:22:35;;;;;;;1.83;0.87;;;;;;;;;;20812035;28;20221;-67
2022/11/03 08:32:37;;;;;;;2.10;1.37;;;;;;;;;;20788979;28;20653;-67
2022/11/03 08:42:39;;;;;;;1.30;0.80;;;;;;;;;;20770695;28;20218;-67
2022/11/03 08:52:40;;;;;;;2.90;1.33;;;;;;;;;;20772408;28;20210;-67
2022/11/03 09:02:44;;;;;;;1.53;1.00;;;9.70;99.90;;;;;;20773540;28;20248;-67
2022/11/03 09:12:46;;;;;;;6.43;0.83;;;;;;;;;;20770937;28;20210;-67
2022/11/03 09:22:47;;;;;;;2.50;0.90;;;;;;;;;;20772390;28;20253;-67
2022/11/03 09:32:49;;;;;;;2.30;1.27;;;;;;;;;;20771817;28;20279;-67
2022/11/03 09:42:51;;;;;;;1.43;0.87;;;;;;;;;;20773470;28;20778;-67
2022/11/03 09:52:54;;;;;;;4.70;0.97;;;;;;;;;;20786416;28;20275;-67
2022/11/03 10:02:56;;;;;;;2.27;0.80;;;;;;;;;;20801588;28;20218;-67
2022/11/03 10:12:59;;;;;;;2.13;0.93;;;;;;;;;;20784986;28;20210;-67
2022/11/03 10:23:00;;;;;;;3.03;1.07;;;;;;;;;;20800420;28;20223;-67
2022/11/03 10:33:02;;;;;;;2.60;1.00;;;;;;;;;;20799193;28;20219;-67
2022/11/03 10:43:04;;;;;;;2.13;1.10;;;;;;;;;;20811965;28;20218;-67
2022/11/03 10:53:19;;;;;;;1.47;0.70;;;10.60;99.90;;;;;;20782374;28;20215;-67
2022/11/03 11:03:21;;;;;;;1.43;0.83;;;;;;;;;;20781251;28;20625;-67
2022/11/03 11:13:25;;;;;;;2.57;1.07;;;10.60;99.90;;;;;;20779593;28;20241;-67
2022/11/03 11:23:27;;;;;;;2.57;0.83;;;;;;;;;;20792462;28;20230;-68
2022/11/03 11:33:30;;;;;;;5.70;1.40;;;;;;;;;;20778121;28;20226;-67
2022/11/03 11:43:32;;;;;;;2.60;1.67;;;;;;;;;;20770456;28;20218;-67
2022/11/03 11:53:40;;;;;;;4.87;0.80;;;10.60;99.90;;;;;;20726589;28;20262;-67
2022/11/03 12:03:44;;;;;;;2.30;0.93;;;10.60;99.90;;;;;;20712920;28;20945;-67
2022/11/03 12:13:46;;;;;;;6.27;2.60;;;;;;;;;;20712556;28;20215;-67
2022/11/03 12:23:48;;;;;;;8.00;3.60;;;;;;;;;;20719755;28;20235;-67
2022/11/03 12:33:50;;;;;;;2.60;1.07;;;;;;;;;;20761787;23;20230;-73
2022/11/03 12:43:54;;;;;;;1.47;0.90;;;;;;;;;;20814476;28;20242;-73
2022/11/03 12:53:56;;;;;;;2.70;1.10;;;;;;;;;;20878257;28;20214;-72
2022/11/03 13:03:58;;;;;;;4.93;1.00;;;;;;;;;;20851886;28;20217;-73
2022/11/03 13:14:00;;;;;;;1.93;0.87;;;;;;;;;;20868033;28;20248;-74
2022/11/03 13:24:02;;;;;;;1.77;1.10;;;;;;;;;;20772481;28;20299;-73
2022/11/03 13:34:05;;;;;;;4.70;1.23;;;;;;;;;;20873036;28;20238;-74
2022/11/03 13:44:07;;;;;;;4.47;0.73;;;;;;;;;;20771355;28;20250;-74
2022/11/03 13:54:09;;;;;;;1.43;0.73;;;;;;;;;;20700464;28;20262;-71
2022/11/03 14:04:11;;;;;;;1.20;0.57;;;;;;;;;;20826329;28;20295;-74
2022/11/03 14:14:12;;;;;;;5.37;0.90;;;;;;;;;;20846542;28;20275;-74
2022/11/03 14:24:14;;;;;;;1.00;0.60;;;;;;;;;;20896252;28;20565;-73
2022/11/03 14:34:15;;;;;;;1.80;0.80;;;;;;;;;;20896253;28;20279;-74
2022/11/03 14:44:17;;;;;;;5.47;1.17;;;;;;;;;;20903056;28;20230;-75
2022/11/03 14:54:19;;;;;;;2.33;0.93;;;;;;;;;;20865861;28;20226;-74
2022/11/03 15:04:22;;;;;;;1.40;0.90;;;;;;;;;;20786716;28;20231;-74
2022/11/03 15:14:23;;;;;;;4.37;1.17;;;;;;;;;;20749386;28;20264;-74
2022/11/03 15:24:25;;;;;;;2.80;1.27;;;;;;;;;;20825224;28;20218;-74
2022/11/03 15:34:28;;;;;;;2.50;1.20;;;;;;;;;;20808569;28;20779;-74
2022/11/03 15:44:30;;;;;;;4.37;1.37;;;;;;;;;;20828529;28;20698;-72
2022/11/03 15:54:31;;;;;;;2.97;1.27;;;;;;;;;;20827726;28;20629;-73
2022/11/03 16:04:33;;;;;;;2.03;1.13;;;;;;;;;;20808767;28;20218;-72
2022/11/03 16:14:35;;;;;;;3.57;1.47;;;;;;;;;;20825180;28;20584;-72
2022/11/03 16:24:37;;;;;;;2.03;1.27;;;;;;;;;;20825256;28;20257;-73
2022/11/03 16:34:39;;;;;;;2.63;1.33;;;;;;;;;;20823576;28;20311;-72
2022/11/03 16:44:41;;;;;;;2.40;1.30;;;;;;;;;;20822613;28;20260;-71
2022/11/03 16:54:43;;;;;;;4.50;2.80;;;;;;;;;;20820276;28;20230;-71
2022/11/03 17:04:45;;;;;;;4.03;2.70;;;;;;;;;;20821428;28;20284;-71
2022/11/03 17:14:46;;;;;;;3.57;1.90;;;;;;;;;;20820520;28;20206;-71
2022/11/03 17:24:48;;;;;;;4.60;1.77;;;11.00;99.90;;;;;;20818448;28;20215;-71
2022/11/03 17:34:51;;;;;;;3.40;1.67;;;11.00;99.90;;;;;;20819117;28;20222;-71
2022/11/03 17:44:55;;;;;;;2.30;1.50;;;;;;;;;;20804298;28;20249;-71
2022/11/03 17:54:57;;;;;;;4.23;1.60;;;;;;;;;;20798987;28;20206;-70
2022/11/03 18:05:15;;;;;;;2.73;1.70;;;10.90;99.90;;;;;;20817122;28;20230;-71
2022/11/03 18:15:20;;;;;;;2.33;1.60;;;;;;;;;;20802445;28;20241;-70
2022/11/03 18:25:22;;;;;;;1.60;0.90;;;;;;;;;;20832787;28;20557;-70
2022/11/03 18:35:25;;;;;;;2.00;1.00;;;;;;;;;;20839807;23;20233;-80
2022/11/03 18:45:27;;;;;;;2.77;1.40;;;;;;;;;;20818985;28;20230;-80
2022/11/03 18:55:29;;;;;;;2.60;1.23;;;;;;;;;;20845387;28;20230;-81
2022/11/03 19:05:32;;;;;;;2.73;1.50;;;;;;;;;;20855368;28;20336;-81
2022/11/03 19:15:34;;;;;;;2.00;1.50;;;;;;;;;;20813928;28;20277;-80
2022/11/03 19:25:38;;;;;;;2.03;1.27;;;;;;;;;;20828250;28;20753;-80
2022/11/03 19:35:40;;;;;;;2.40;1.40;;;;;;;;;;20811311;28;20288;-80
2022/11/03 19:45:41;;;;;;;2.23;1.40;;;;;;;;;;20797955;28;20230;-80
2022/11/03 19:55:43;;;;;;;2.83;1.60;;;;;;;;;;20814129;28;20219;-80
2022/11/03 20:05:46;;;;;;;3.23;1.43;;;;;;;;;;20777700;28;20297;-80
2022/11/03 20:15:48;;;;;;;5.00;2.23;;;;;;;;;;20805422;28;20222;-80
2022/11/03 20:25:49;;;;;;;1.90;1.13;;;13.80;99.90;;;;;;20802541;28;20307;-80
2022/11/03 20:35:52;;;;;;;3.67;1.33;;;;;;;;;;20806312;28;20222;-79
2022/11/03 20:45:54;;;;;;;2.57;1.47;;;;;;;;;;20827851;28;20226;-82
2022/11/03 20:55:56;;;;;;;1.87;1.30;;;;;;;;;;20788372;28;20219;-82
2022/11/03 21:05:58;;;;;;;3.03;1.70;;;;;;;;;;20771463;28;20234;-81
2022/11/03 21:26:21;;;;;;;3.17;1.27;;;;;;;;;;20789162;28;20226;-80
2022/11/03 21:36:23;;;;;;;2.03;1.30;;;;;;;;;;20804126;28;20241;-80
2022/11/03 21:46:24;;;;;;;1.57;1.30;;;;;;;;;;20803093;28;20226;-80
2022/11/03 21:56:26;;;;;;;4.10;1.40;;;;;;;;;;20814624;28;20276;-80
2022/11/03 22:06:28;;;;;;;2.57;1.50;;;;;;;;;;20787213;28;20265;-81
2022/11/03 22:16:36;;;;;;;2.73;1.53;;;;;;;;;;20808210;28;20695;-80
2022/11/03 22:26:58;;;;;;;2.87;1.27;;;;;;;;;;20807825;28;20755;-80
2022/11/03 22:37:00;;;;;;;1.57;1.03;;;;;;;;;;20806122;28;20222;-82
2022/11/03 22:47:01;;;;;;;2.67;1.20;;;;;;;;;;20788220;28;20222;-80
2022/11/03 22:57:03;;;;;;;1.07;0.70;;;;;;;;;;20804476;28;20211;-81
2022/11/03 23:07:05;;;;;;;0.70;0.50;;;;;;;;;;20832005;28;20242;-79
2022/11/03 23:17:07;;;;;;;0.60;0.40;;;;;;;;;;20801122;28;20214;-81
2022/11/03 23:27:09;;;;;;;0.30;0.30;;;;;;;;;;20833063;28;20712;-83
2022/11/03 23:37:11;;;;;;;0.30;0.30;;;;;;;;;;20816737;28;20291;-79
